sensor_id;sensor_type;location;lat;lon;timestamp;temperature;humidity
52181;DHT22;38158;53.338;6.514;2024-03-08T00:01:10;2.10;99.90
52181;DHT22;38158;53.338;6.514;2024-03-08T00:03:35;2.10;99.90
52181;DHT22;38158;53.338;6.514;2024-03-08T00:06:01;2.10;99.90
52181;DHT22;38158;53.338;6.514;2024-03-08T00:08:28;2.10;99.90
52181;DHT22;38158;53.338;6.514;2024-03-08T00:10:56;2.20;99.90
52181;DHT22;38158;53.338;6.514;2024-03-08T00:13:22;2.30;99.90
52181;DHT22;38158;53.338;6.514;2024-03-08T00:15:47;2.10;99.90
52181;DHT22;38158;53.338;6.514;2024-03-08T00:18:13;2.10;99.90
52181;DHT22;38158;53.338;6.514;2024-03-08T00:20:38;2.10;99.90
52181;DHT22;38158;53.338;6.514;2024-03-08T00:23:04;3.10;99.90
52181;DHT22;38158;53.338;6.514;2024-03-08T00:25:30;2.00;99.90
52181;DHT22;38158;53.338;6.514;2024-03-08T00:27:56;2.00;99.90
52181;DHT22;38158;53.338;6.514;2024-03-08T00:30:22;2.00;99.90
52181;DHT22;38158;53.338;6.514;2024-03-08T00:32:49;2.00;99.90
52181;DHT22;38158;53.338;6.514;2024-03-08T00:35:14;2.00;99.90
52181;DHT22;38158;53.338;6.514;2024-03-08T00:37:40;3.10;99.90
52181;DHT22;38158;53.338;6.514;2024-03-08T00:40:12;2.00;99.90
52181;DHT22;38158;53.338;6.514;2024-03-08T00:42:38;2.00;99.90
52181;DHT22;38158;53.338;6.514;2024-03-08T00:45:05;2.00;99.90
52181;DHT22;38158;53.338;6.514;2024-03-08T00:47:31;2.00;99.90
52181;DHT22;38158;53.338;6.514;2024-03-08T00:49:57;2.00;99.90
52181;DHT22;38158;53.338;6.514;2024-03-08T00:52:23;2.00;99.90
52181;DHT22;38158;53.338;6.514;2024-03-08T00:54:49;1.90;99.90
52181;DHT22;38158;53.338;6.514;2024-03-08T00:57:15;1.90;99.90
52181;DHT22;38158;53.338;6.514;2024-03-08T00:59:41;1.90;99.90
52181;DHT22;38158;53.338;6.514;2024-03-08T01:02:07;1.90;99.90
52181;DHT22;38158;53.338;6.514;2024-03-08T01:04:34;1.90;99.90
52181;DHT22;38158;53.338;6.514;2024-03-08T01:07:00;4.30;99.90
52181;DHT22;38158;53.338;6.514;2024-03-08T01:09:26;1.90;99.90
52181;DHT22;38158;53.338;6.514;2024-03-08T01:11:53;2.70;99.90
52181;DHT22;38158;53.338;6.514;2024-03-08T01:14:23;1.80;99.90
52181;DHT22;38158;53.338;6.514;2024-03-08T01:16:49;1.80;99.90
52181;DHT22;38158;53.338;6.514;2024-03-08T01:19:15;1.90;99.90
52181;DHT22;38158;53.338;6.514;2024-03-08T01:21:41;1.80;99.90
52181;DHT22;38158;53.338;6.514;2024-03-08T01:24:07;1.80;99.90
52181;DHT22;38158;53.338;6.514;2024-03-08T01:26:32;1.70;99.90
52181;DHT22;38158;53.338;6.514;2024-03-08T01:29:00;1.70;99.90
52181;DHT22;38158;53.338;6.514;2024-03-08T01:31:26;1.60;99.90
52181;DHT22;38158;53.338;6.514;2024-03-08T01:33:54;1.60;99.90
52181;DHT22;38158;53.338;6.514;2024-03-08T01:36:20;1.60;99.90
52181;DHT22;38158;53.338;6.514;2024-03-08T01:38:45;1.60;99.90
52181;DHT22;38158;53.338;6.514;2024-03-08T01:41:11;1.60;99.90
52181;DHT22;38158;53.338;6.514;2024-03-08T01:43:38;1.50;99.90
52181;DHT22;38158;53.338;6.514;2024-03-08T01:46:05;1.40;99.90
52181;DHT22;38158;53.338;6.514;2024-03-08T01:48:31;1.40;99.90
52181;DHT22;38158;53.338;6.514;2024-03-08T01:50:58;1.30;99.90
52181;DHT22;38158;53.338;6.514;2024-03-08T01:53:26;1.30;99.90
52181;DHT22;38158;53.338;6.514;2024-03-08T01:55:55;1.20;99.90
52181;DHT22;38158;53.338;6.514;2024-03-08T01:58:22;1.20;99.90
52181;DHT22;38158;53.338;6.514;2024-03-08T02:00:48;1.20;99.90
52181;DHT22;38158;53.338;6.514;2024-03-08T02:03:17;1.20;99.90
52181;DHT22;38158;53.338;6.514;2024-03-08T02:05:43;1.20;99.90
52181;DHT22;38158;53.338;6.514;2024-03-08T02:08:09;1.20;99.90
52181;DHT22;38158;53.338;6.514;2024-03-08T02:10:44;1.20;99.90
52181;DHT22;38158;53.338;6.514;2024-03-08T02:13:11;1.20;99.90
52181;DHT22;38158;53.338;6.514;2024-03-08T02:15:56;1.20;99.90
52181;DHT22;38158;53.338;6.514;2024-03-08T02:18:23;1.20;99.90
52181;DHT22;38158;53.338;6.514;2024-03-08T02:20:55;1.20;99.90
52181;DHT22;38158;53.338;6.514;2024-03-08T02:23:22;1.20;99.90
52181;DHT22;38158;53.338;6.514;2024-03-08T02:25:50;1.20;99.90
52181;DHT22;38158;53.338;6.514;2024-03-08T02:28:16;1.20;99.90
52181;DHT22;38158;53.338;6.514;2024-03-08T02:30:44;1.10;99.90
52181;DHT22;38158;53.338;6.514;2024-03-08T02:33:14;1.10;99.90
52181;DHT22;38158;53.338;6.514;2024-03-08T02:35:46;1.10;99.90
52181;DHT22;38158;53.338;6.514;2024-03-08T02:38:13;1.10;99.90
52181;DHT22;38158;53.338;6.514;2024-03-08T02:40:45;1.10;99.90
52181;DHT22;38158;53.338;6.514;2024-03-08T02:43:11;1.10;99.90
52181;DHT22;38158;53.338;6.514;2024-03-08T02:45:38;1.10;99.90
52181;DHT22;38158;53.338;6.514;2024-03-08T02:48:04;1.10;99.90
52181;DHT22;38158;53.338;6.514;2024-03-08T02:50:32;1.10;99.90
52181;DHT22;38158;53.338;6.514;2024-03-08T02:52:57;1.20;99.90
52181;DHT22;38158;53.338;6.514;2024-03-08T02:55:23;1.10;99.90
52181;DHT22;38158;53.338;6.514;2024-03-08T02:57:52;1.10;99.90
52181;DHT22;38158;53.338;6.514;2024-03-08T03:00:18;1.10;99.90
52181;DHT22;38158;53.338;6.514;2024-03-08T03:02:45;1.10;99.90
52181;DHT22;38158;53.338;6.514;2024-03-08T03:05:11;1.10;99.90
52181;DHT22;38158;53.338;6.514;2024-03-08T03:07:37;1.00;99.90
52181;DHT22;38158;53.338;6.514;2024-03-08T03:10:03;1.00;99.90
52181;DHT22;38158;53.338;6.514;2024-03-08T03:12:29;1.00;99.90
52181;DHT22;38158;53.338;6.514;2024-03-08T03:14:56;1.00;99.90
52181;DHT22;38158;53.338;6.514;2024-03-08T03:17:25;1.00;99.90
52181;DHT22;38158;53.338;6.514;2024-03-08T03:19:51;3.20;99.90
52181;DHT22;38158;53.338;6.514;2024-03-08T03:22:17;1.00;99.90
52181;DHT22;38158;53.338;6.514;2024-03-08T03:24:44;0.90;99.90
52181;DHT22;38158;53.338;6.514;2024-03-08T03:27:12;0.90;99.90
52181;DHT22;38158;53.338;6.514;2024-03-08T03:29:39;0.90;99.90
52181;DHT22;38158;53.338;6.514;2024-03-08T03:32:05;0.90;99.90
52181;DHT22;38158;53.338;6.514;2024-03-08T03:34:33;1.00;99.90
52181;DHT22;38158;53.338;6.514;2024-03-08T03:37:02;0.90;99.90
52181;DHT22;38158;53.338;6.514;2024-03-08T03:39:28;0.90;99.90
52181;DHT22;38158;53.338;6.514;2024-03-08T03:41:57;0.90;99.90
52181;DHT22;38158;53.338;6.514;2024-03-08T03:44:23;1.00;99.90
52181;DHT22;38158;53.338;6.514;2024-03-08T03:46:49;0.80;99.90
52181;DHT22;38158;53.338;6.514;2024-03-08T03:49:16;0.80;99.90
52181;DHT22;38158;53.338;6.514;2024-03-08T03:51:42;0.70;99.90
52181;DHT22;38158;53.338;6.514;2024-03-08T03:54:08;0.60;99.90
52181;DHT22;38158;53.338;6.514;2024-03-08T03:56:34;0.60;99.90
52181;DHT22;38158;53.338;6.514;2024-03-08T03:58:59;0.70;99.90
52181;DHT22;38158;53.338;6.514;2024-03-08T04:01:25;0.70;99.90
52181;DHT22;38158;53.338;6.514;2024-03-08T04:03:50;0.60;99.90
52181;DHT22;38158;53.338;6.514;2024-03-08T04:06:16;0.60;99.90
52181;DHT22;38158;53.338;6.514;2024-03-08T04:08:42;0.60;99.90
52181;DHT22;38158;53.338;6.514;2024-03-08T04:11:07;0.60;99.90
52181;DHT22;38158;53.338;6.514;2024-03-08T04:13:36;0.60;99.90
52181;DHT22;38158;53.338;6.514;2024-03-08T04:16:02;0.60;99.90
52181;DHT22;38158;53.338;6.514;2024-03-08T04:18:28;0.60;99.90
52181;DHT22;38158;53.338;6.514;2024-03-08T04:20:53;0.60;99.90
52181;DHT22;38158;53.338;6.514;2024-03-08T04:23:19;0.60;99.90
52181;DHT22;38158;53.338;6.514;2024-03-08T04:25:45;1.90;99.90
52181;DHT22;38158;53.338;6.514;2024-03-08T04:28:11;0.60;99.90
52181;DHT22;38158;53.338;6.514;2024-03-08T04:30:38;0.60;99.90
52181;DHT22;38158;53.338;6.514;2024-03-08T04:33:05;0.60;99.90
52181;DHT22;38158;53.338;6.514;2024-03-08T04:35:32;0.60;99.90
52181;DHT22;38158;53.338;6.514;2024-03-08T04:37:58;0.60;99.90
52181;DHT22;38158;53.338;6.514;2024-03-08T04:40:24;0.50;99.90
52181;DHT22;38158;53.338;6.514;2024-03-08T04:42:50;0.50;99.90
52181;DHT22;38158;53.338;6.514;2024-03-08T04:45:16;0.60;99.90
52181;DHT22;38158;53.338;6.514;2024-03-08T04:47:42;0.60;99.90
52181;DHT22;38158;53.338;6.514;2024-03-08T04:50:08;0.60;99.90
52181;DHT22;38158;53.338;6.514;2024-03-08T04:52:34;0.60;99.90
52181;DHT22;38158;53.338;6.514;2024-03-08T04:55:01;0.50;99.90
52181;DHT22;38158;53.338;6.514;2024-03-08T04:57:29;0.60;99.90
52181;DHT22;38158;53.338;6.514;2024-03-08T04:59:55;0.50;99.90
52181;DHT22;38158;53.338;6.514;2024-03-08T05:02:21;0.50;99.90
52181;DHT22;38158;53.338;6.514;2024-03-08T05:04:48;0.50;99.90
52181;DHT22;38158;53.338;6.514;2024-03-08T05:07:14;0.40;99.90
52181;DHT22;38158;53.338;6.514;2024-03-08T05:09:39;0.40;99.90
52181;DHT22;38158;53.338;6.514;2024-03-08T05:12:06;0.40;99.90
52181;DHT22;38158;53.338;6.514;2024-03-08T05:14:33;0.50;99.90
52181;DHT22;38158;53.338;6.514;2024-03-08T05:17:00;0.50;99.90
52181;DHT22;38158;53.338;6.514;2024-03-08T05:19:26;0.50;99.90
52181;DHT22;38158;53.338;6.514;2024-03-08T05:21:52;0.50;99.90
52181;DHT22;38158;53.338;6.514;2024-03-08T05:24:18;0.50;99.90
52181;DHT22;38158;53.338;6.514;2024-03-08T05:26:44;0.40;99.90
52181;DHT22;38158;53.338;6.514;2024-03-08T05:29:10;0.50;99.90
52181;DHT22;38158;53.338;6.514;2024-03-08T05:34:11;0.50;99.90
52181;DHT22;38158;53.338;6.514;2024-03-08T05:36:43;0.40;99.90
52181;DHT22;38158;53.338;6.514;2024-03-08T05:39:15;0.50;99.90
52181;DHT22;38158;53.338;6.514;2024-03-08T05:41:41;0.40;99.90
52181;DHT22;38158;53.338;6.514;2024-03-08T05:44:07;0.40;99.90
52181;DHT22;38158;53.338;6.514;2024-03-08T05:46:33;0.40;99.90
52181;DHT22;38158;53.338;6.514;2024-03-08T05:48:59;0.40;99.90
52181;DHT22;38158;53.338;6.514;2024-03-08T05:51:25;0.30;99.90
52181;DHT22;38158;53.338;6.514;2024-03-08T05:53:53;0.30;99.90
52181;DHT22;38158;53.338;6.514;2024-03-08T05:56:21;0.30;99.90
52181;DHT22;38158;53.338;6.514;2024-03-08T05:58:48;0.30;99.90
52181;DHT22;38158;53.338;6.514;2024-03-08T06:01:15;1.00;99.90
52181;DHT22;38158;53.338;6.514;2024-03-08T06:03:41;0.30;99.90
52181;DHT22;38158;53.338;6.514;2024-03-08T06:06:13;0.30;99.90
52181;DHT22;38158;53.338;6.514;2024-03-08T06:08:39;0.30;99.90
52181;DHT22;38158;53.338;6.514;2024-03-08T06:11:06;0.30;99.90
52181;DHT22;38158;53.338;6.514;2024-03-08T06:13:32;0.30;99.90
52181;DHT22;38158;53.338;6.514;2024-03-08T06:15:59;0.30;99.90
52181;DHT22;38158;53.338;6.514;2024-03-08T06:18:26;1.00;99.90
52181;DHT22;38158;53.338;6.514;2024-03-08T06:20:52;0.30;99.90
52181;DHT22;38158;53.338;6.514;2024-03-08T06:23:18;0.30;99.90
52181;DHT22;38158;53.338;6.514;2024-03-08T06:25:44;0.30;99.90
52181;DHT22;38158;53.338;6.514;2024-03-08T06:28:10;0.40;99.90
52181;DHT22;38158;53.338;6.514;2024-03-08T06:30:36;0.40;99.90
52181;DHT22;38158;53.338;6.514;2024-03-08T06:33:01;0.40;99.90
52181;DHT22;38158;53.338;6.514;2024-03-08T06:35:27;0.40;99.90
52181;DHT22;38158;53.338;6.514;2024-03-08T06:37:53;0.40;99.90
52181;DHT22;38158;53.338;6.514;2024-03-08T06:40:19;0.40;99.90
52181;DHT22;38158;53.338;6.514;2024-03-08T06:42:44;0.40;99.90
52181;DHT22;38158;53.338;6.514;2024-03-08T06:45:11;0.50;99.90
52181;DHT22;38158;53.338;6.514;2024-03-08T06:47:37;0.50;99.90
52181;DHT22;38158;53.338;6.514;2024-03-08T06:50:03;0.40;99.90
52181;DHT22;38158;53.338;6.514;2024-03-08T06:52:29;0.50;99.90
52181;DHT22;38158;53.338;6.514;2024-03-08T06:54:55;0.50;99.90
52181;DHT22;38158;53.338;6.514;2024-03-08T06:57:22;0.50;99.90
52181;DHT22;38158;53.338;6.514;2024-03-08T06:59:49;0.50;99.90
52181;DHT22;38158;53.338;6.514;2024-03-08T07:02:14;2.80;99.90
52181;DHT22;38158;53.338;6.514;2024-03-08T07:04:40;0.60;99.90
52181;DHT22;38158;53.338;6.514;2024-03-08T07:07:06;0.70;99.90
52181;DHT22;38158;53.338;6.514;2024-03-08T07:09:35;0.70;99.90
52181;DHT22;38158;53.338;6.514;2024-03-08T07:12:01;0.80;99.90
52181;DHT22;38158;53.338;6.514;2024-03-08T07:14:27;0.90;99.90
52181;DHT22;38158;53.338;6.514;2024-03-08T07:16:53;0.90;99.90
52181;DHT22;38158;53.338;6.514;2024-03-08T07:19:18;2.40;99.90
52181;DHT22;38158;53.338;6.514;2024-03-08T07:21:45;1.00;99.90
52181;DHT22;38158;53.338;6.514;2024-03-08T07:24:11;1.10;99.90
52181;DHT22;38158;53.338;6.514;2024-03-08T07:26:43;1.10;99.90
52181;DHT22;38158;53.338;6.514;2024-03-08T07:29:09;1.20;99.90
52181;DHT22;38158;53.338;6.514;2024-03-08T07:31:34;1.20;99.90
52181;DHT22;38158;53.338;6.514;2024-03-08T07:34:11;1.30;99.90
52181;DHT22;38158;53.338;6.514;2024-03-08T07:36:36;1.30;99.90
52181;DHT22;38158;53.338;6.514;2024-03-08T07:39:02;1.40;99.90
52181;DHT22;38158;53.338;6.514;2024-03-08T07:41:30;1.50;99.90
52181;DHT22;38158;53.338;6.514;2024-03-08T07:43:56;1.50;99.90
52181;DHT22;38158;53.338;6.514;2024-03-08T07:46:22;1.60;99.90
52181;DHT22;38158;53.338;6.514;2024-03-08T07:48:48;1.60;99.90
52181;DHT22;38158;53.338;6.514;2024-03-08T07:51:16;2.70;99.90
52181;DHT22;38158;53.338;6.514;2024-03-08T07:53:43;1.70;99.90
52181;DHT22;38158;53.338;6.514;2024-03-08T07:56:09;1.80;99.90
52181;DHT22;38158;53.338;6.514;2024-03-08T07:58:38;1.90;99.90
52181;DHT22;38158;53.338;6.514;2024-03-08T08:01:06;2.00;99.90
52181;DHT22;38158;53.338;6.514;2024-03-08T08:03:32;2.10;99.90
52181;DHT22;38158;53.338;6.514;2024-03-08T08:05:57;2.20;99.90
52181;DHT22;38158;53.338;6.514;2024-03-08T08:08:23;2.20;99.90
52181;DHT22;38158;53.338;6.514;2024-03-08T08:10:49;2.30;99.90
52181;DHT22;38158;53.338;6.514;2024-03-08T08:13:15;2.40;99.90
52181;DHT22;38158;53.338;6.514;2024-03-08T08:15:41;2.50;99.90
52181;DHT22;38158;53.338;6.514;2024-03-08T08:18:06;2.50;99.90
52181;DHT22;38158;53.338;6.514;2024-03-08T08:20:35;3.00;99.90
52181;DHT22;38158;53.338;6.514;2024-03-08T08:23:00;2.80;99.90
52181;DHT22;38158;53.338;6.514;2024-03-08T08:25:26;4.70;99.90
52181;DHT22;38158;53.338;6.514;2024-03-08T08:27:52;2.90;99.90
52181;DHT22;38158;53.338;6.514;2024-03-08T08:30:19;3.00;99.90
52181;DHT22;38158;53.338;6.514;2024-03-08T08:32:45;3.10;99.90
52181;DHT22;38158;53.338;6.514;2024-03-08T08:35:12;3.10;99.90
52181;DHT22;38158;53.338;6.514;2024-03-08T08:37:40;4.00;99.90
52181;DHT22;38158;53.338;6.514;2024-03-08T08:40:07;3.30;99.90
52181;DHT22;38158;53.338;6.514;2024-03-08T08:42:40;3.40;99.90
52181;DHT22;38158;53.338;6.514;2024-03-08T08:45:06;3.50;99.90
52181;DHT22;38158;53.338;6.514;2024-03-08T08:47:36;3.50;99.90
52181;DHT22;38158;53.338;6.514;2024-03-08T08:50:02;3.60;99.90
52181;DHT22;38158;53.338;6.514;2024-03-08T08:52:29;3.70;99.90
52181;DHT22;38158;53.338;6.514;2024-03-08T08:54:55;4.60;99.90
52181;DHT22;38158;53.338;6.514;2024-03-08T08:57:20;3.80;99.90
52181;DHT22;38158;53.338;6.514;2024-03-08T08:59:46;4.70;99.90
52181;DHT22;38158;53.338;6.514;2024-03-08T09:02:11;3.90;99.90
52181;DHT22;38158;53.338;6.514;2024-03-08T09:04:38;4.00;99.90
52181;DHT22;38158;53.338;6.514;2024-03-08T09:07:04;4.10;99.90
52181;DHT22;38158;53.338;6.514;2024-03-08T09:09:32;4.20;99.90
52181;DHT22;38158;53.338;6.514;2024-03-08T09:11:58;4.30;99.90
52181;DHT22;38158;53.338;6.514;2024-03-08T09:14:23;4.60;99.90
52181;DHT22;38158;53.338;6.514;2024-03-08T09:16:52;4.20;99.90
52181;DHT22;38158;53.338;6.514;2024-03-08T09:19:18;4.20;99.90
52181;DHT22;38158;53.338;6.514;2024-03-08T09:21:45;4.20;99.90
52181;DHT22;38158;53.338;6.514;2024-03-08T09:24:11;4.40;99.90
52181;DHT22;38158;53.338;6.514;2024-03-08T09:26:37;4.20;99.90
52181;DHT22;38158;53.338;6.514;2024-03-08T09:29:03;4.20;99.90
52181;DHT22;38158;53.338;6.514;2024-03-08T09:31:30;4.20;99.90
52181;DHT22;38158;53.338;6.514;2024-03-08T09:33:56;4.20;99.90
52181;DHT22;38158;53.338;6.514;2024-03-08T09:36:21;4.20;99.90
52181;DHT22;38158;53.338;6.514;2024-03-08T09:38:47;4.20;99.90
52181;DHT22;38158;53.338;6.514;2024-03-08T09:41:14;4.20;99.90
52181;DHT22;38158;53.338;6.514;2024-03-08T09:43:39;5.20;99.90
52181;DHT22;38158;53.338;6.514;2024-03-08T09:46:06;4.20;99.90
52181;DHT22;38158;53.338;6.514;2024-03-08T09:48:32;4.20;99.90
52181;DHT22;38158;53.338;6.514;2024-03-08T09:51:00;4.40;99.90
52181;DHT22;38158;53.338;6.514;2024-03-08T09:53:26;4.30;99.90
52181;DHT22;38158;53.338;6.514;2024-03-08T09:55:51;4.30;99.90
52181;DHT22;38158;53.338;6.514;2024-03-08T09:58:17;4.40;99.90
52181;DHT22;38158;53.338;6.514;2024-03-08T10:00:58;4.50;99.90
52181;DHT22;38158;53.338;6.514;2024-03-08T10:03:24;4.50;99.90
52181;DHT22;38158;53.338;6.514;2024-03-08T10:05:53;4.50;99.90
52181;DHT22;38158;53.338;6.514;2024-03-08T10:08:28;4.60;99.90
52181;DHT22;38158;53.338;6.514;2024-03-08T10:10:57;4.60;99.90
52181;DHT22;38158;53.338;6.514;2024-03-08T10:13:25;4.70;99.90
52181;DHT22;38158;53.338;6.514;2024-03-08T10:15:53;4.70;99.90
52181;DHT22;38158;53.338;6.514;2024-03-08T10:18:18;4.70;99.90
52181;DHT22;38158;53.338;6.514;2024-03-08T10:20:44;4.70;99.90
52181;DHT22;38158;53.338;6.514;2024-03-08T10:23:10;4.80;99.90
52181;DHT22;38158;53.338;6.514;2024-03-08T10:25:36;4.80;99.90
52181;DHT22;38158;53.338;6.514;2024-03-08T10:28:05;5.00;99.90
52181;DHT22;38158;53.338;6.514;2024-03-08T10:30:31;5.10;99.90
52181;DHT22;38158;53.338;6.514;2024-03-08T10:32:57;6.50;99.90
52181;DHT22;38158;53.338;6.514;2024-03-08T10:35:24;5.00;99.90
52181;DHT22;38158;53.338;6.514;2024-03-08T10:37:52;5.10;99.90
52181;DHT22;38158;53.338;6.514;2024-03-08T10:40:29;6.20;99.90
52181;DHT22;38158;53.338;6.514;2024-03-08T10:42:59;6.30;99.90
52181;DHT22;38158;53.338;6.514;2024-03-08T10:47:55;5.40;99.90
52181;DHT22;38158;53.338;6.514;2024-03-08T10:50:25;5.40;99.90
52181;DHT22;38158;53.338;6.514;2024-03-08T10:52:52;5.50;99.90
52181;DHT22;38158;53.338;6.514;2024-03-08T10:55:18;5.50;99.90
52181;DHT22;38158;53.338;6.514;2024-03-08T10:57:46;5.50;99.90
52181;DHT22;38158;53.338;6.514;2024-03-08T11:00:13;5.60;99.90
52181;DHT22;38158;53.338;6.514;2024-03-08T11:02:48;5.70;99.90
52181;DHT22;38158;53.338;6.514;2024-03-08T11:05:40;5.80;99.90
52181;DHT22;38158;53.338;6.514;2024-03-08T11:08:18;5.90;99.90
52181;DHT22;38158;53.338;6.514;2024-03-08T11:10:52;6.00;99.90
52181;DHT22;38158;53.338;6.514;2024-03-08T11:13:41;6.00;99.90
52181;DHT22;38158;53.338;6.514;2024-03-08T11:16:10;6.10;99.90
52181;DHT22;38158;53.338;6.514;2024-03-08T11:18:37;6.10;99.90
52181;DHT22;38158;53.338;6.514;2024-03-08T11:21:04;6.10;99.90
52181;DHT22;38158;53.338;6.514;2024-03-08T11:23:34;6.10;99.90
52181;DHT22;38158;53.338;6.514;2024-03-08T11:26:00;6.20;99.90
52181;DHT22;38158;53.338;6.514;2024-03-08T11:28:26;6.10;99.90
52181;DHT22;38158;53.338;6.514;2024-03-08T11:33:28;6.30;99.90
52181;DHT22;38158;53.338;6.514;2024-03-08T11:36:13;6.40;99.90
52181;DHT22;38158;53.338;6.514;2024-03-08T11:38:48;6.40;99.90
52181;DHT22;38158;53.338;6.514;2024-03-08T11:41:23;6.60;99.90
52181;DHT22;38158;53.338;6.514;2024-03-08T11:44:02;6.70;99.90
52181;DHT22;38158;53.338;6.514;2024-03-08T11:46:30;6.80;99.90
52181;DHT22;38158;53.338;6.514;2024-03-08T11:48:56;6.80;99.90
52181;DHT22;38158;53.338;6.514;2024-03-08T11:51:22;7.90;99.90
52181;DHT22;38158;53.338;6.514;2024-03-08T11:53:49;6.90;99.90
52181;DHT22;38158;53.338;6.514;2024-03-08T11:56:16;7.70;99.90
52181;DHT22;38158;53.338;6.514;2024-03-08T11:58:53;7.00;99.90
52181;DHT22;38158;53.338;6.514;2024-03-08T12:01:18;7.60;99.90
52181;DHT22;38158;53.338;6.514;2024-03-08T12:03:44;7.10;99.90
52181;DHT22;38158;53.338;6.514;2024-03-08T12:06:17;7.30;99.90
52181;DHT22;38158;53.338;6.514;2024-03-08T12:08:43;7.20;99.90
52181;DHT22;38158;53.338;6.514;2024-03-08T12:11:12;7.30;99.90
52181;DHT22;38158;53.338;6.514;2024-03-08T12:13:37;7.60;99.90
52181;DHT22;38158;53.338;6.514;2024-03-08T12:16:05;7.30;99.90
52181;DHT22;38158;53.338;6.514;2024-03-08T12:18:37;7.30;99.90
52181;DHT22;38158;53.338;6.514;2024-03-08T12:21:12;7.40;99.90
52181;DHT22;38158;53.338;6.514;2024-03-08T12:23:46;7.50;99.90
52181;DHT22;38158;53.338;6.514;2024-03-08T12:26:16;7.70;99.90
52181;DHT22;38158;53.338;6.514;2024-03-08T12:28:44;7.70;99.90
52181;DHT22;38158;53.338;6.514;2024-03-08T12:31:12;8.10;99.90
52181;DHT22;38158;53.338;6.514;2024-03-08T12:33:50;7.70;99.90
52181;DHT22;38158;53.338;6.514;2024-03-08T12:36:16;7.80;99.90
52181;DHT22;38158;53.338;6.514;2024-03-08T12:38:46;7.80;99.90
52181;DHT22;38158;53.338;6.514;2024-03-08T12:41:15;7.70;99.90
52181;DHT22;38158;53.338;6.514;2024-03-08T12:43:43;7.70;99.90
52181;DHT22;38158;53.338;6.514;2024-03-08T12:46:13;7.80;99.90
52181;DHT22;38158;53.338;6.514;2024-03-08T12:48:38;7.90;99.90
52181;DHT22;38158;53.338;6.514;2024-03-08T12:51:06;7.90;99.90
52181;DHT22;38158;53.338;6.514;2024-03-08T12:53:33;7.90;99.90
52181;DHT22;38158;53.338;6.514;2024-03-08T12:55:58;8.10;99.90
52181;DHT22;38158;53.338;6.514;2024-03-08T12:58:24;8.00;99.90
52181;DHT22;38158;53.338;6.514;2024-03-08T13:00:51;8.00;99.90
52181;DHT22;38158;53.338;6.514;2024-03-08T13:03:17;9.10;99.90
52181;DHT22;38158;53.338;6.514;2024-03-08T13:05:43;8.10;99.90
52181;DHT22;38158;53.338;6.514;2024-03-08T13:08:09;8.10;99.90
52181;DHT22;38158;53.338;6.514;2024-03-08T13:10:41;8.10;99.90
52181;DHT22;38158;53.338;6.514;2024-03-08T13:13:09;8.10;99.90
52181;DHT22;38158;53.338;6.514;2024-03-08T13:15:35;9.30;99.90
52181;DHT22;38158;53.338;6.514;2024-03-08T13:18:01;8.10;99.90
52181;DHT22;38158;53.338;6.514;2024-03-08T13:20:27;8.10;99.90
52181;DHT22;38158;53.338;6.514;2024-03-08T13:22:53;8.10;99.90
52181;DHT22;38158;53.338;6.514;2024-03-08T13:25:19;8.90;99.90
52181;DHT22;38158;53.338;6.514;2024-03-08T13:27:45;8.20;99.90
52181;DHT22;38158;53.338;6.514;2024-03-08T13:30:12;8.30;99.90
52181;DHT22;38158;53.338;6.514;2024-03-08T13:32:42;8.30;99.90
52181;DHT22;38158;53.338;6.514;2024-03-08T13:35:13;8.40;99.90
52181;DHT22;38158;53.338;6.514;2024-03-08T13:37:42;8.90;99.90
52181;DHT22;38158;53.338;6.514;2024-03-08T13:40:09;8.40;99.90
52181;DHT22;38158;53.338;6.514;2024-03-08T13:42:42;8.40;99.90
52181;DHT22;38158;53.338;6.514;2024-03-08T13:45:08;9.00;99.90
52181;DHT22;38158;53.338;6.514;2024-03-08T13:47:37;8.40;99.90
52181;DHT22;38158;53.338;6.514;2024-03-08T13:50:03;8.50;99.90
52181;DHT22;38158;53.338;6.514;2024-03-08T13:52:29;8.50;99.90
52181;DHT22;38158;53.338;6.514;2024-03-08T13:54:55;8.50;99.90
52181;DHT22;38158;53.338;6.514;2024-03-08T13:57:21;9.40;99.90
52181;DHT22;38158;53.338;6.514;2024-03-08T13:59:48;8.70;99.90
52181;DHT22;38158;53.338;6.514;2024-03-08T14:02:16;8.70;99.90
52181;DHT22;38158;53.338;6.514;2024-03-08T14:04:43;9.30;99.90
52181;DHT22;38158;53.338;6.514;2024-03-08T14:07:09;8.70;99.90
52181;DHT22;38158;53.338;6.514;2024-03-08T14:09:36;8.60;99.90
52181;DHT22;38158;53.338;6.514;2024-03-08T14:12:08;8.60;99.90
52181;DHT22;38158;53.338;6.514;2024-03-08T14:14:35;8.60;99.90
52181;DHT22;38158;53.338;6.514;2024-03-08T14:17:04;10.70;99.90
52181;DHT22;38158;53.338;6.514;2024-03-08T14:19:37;8.60;99.90
52181;DHT22;38158;53.338;6.514;2024-03-08T14:22:04;8.60;99.90
52181;DHT22;38158;53.338;6.514;2024-03-08T14:24:30;8.60;99.90
52181;DHT22;38158;53.338;6.514;2024-03-08T14:26:56;8.50;99.90
52181;DHT22;38158;53.338;6.514;2024-03-08T14:29:27;8.50;99.90
52181;DHT22;38158;53.338;6.514;2024-03-08T14:32:00;8.50;99.90
52181;DHT22;38158;53.338;6.514;2024-03-08T14:34:28;8.50;99.90
52181;DHT22;38158;53.338;6.514;2024-03-08T14:36:57;8.50;99.90
52181;DHT22;38158;53.338;6.514;2024-03-08T14:39:24;9.10;99.90
52181;DHT22;38158;53.338;6.514;2024-03-08T14:41:55;9.20;99.90
52181;DHT22;38158;53.338;6.514;2024-03-08T14:44:22;8.50;99.90
52181;DHT22;38158;53.338;6.514;2024-03-08T14:46:52;8.40;99.90
52181;DHT22;38158;53.338;6.514;2024-03-08T14:49:17;9.00;99.90
52181;DHT22;38158;53.338;6.514;2024-03-08T14:51:44;8.40;99.90
52181;DHT22;38158;53.338;6.514;2024-03-08T14:54:10;8.70;99.90
52181;DHT22;38158;53.338;6.514;2024-03-08T14:56:36;8.40;99.90
52181;DHT22;38158;53.338;6.514;2024-03-08T14:59:02;8.40;99.90
52181;DHT22;38158;53.338;6.514;2024-03-08T15:01:30;8.30;99.90
52181;DHT22;38158;53.338;6.514;2024-03-08T15:03:58;8.30;99.90
52181;DHT22;38158;53.338;6.514;2024-03-08T15:06:29;8.20;99.90
52181;DHT22;38158;53.338;6.514;2024-03-08T15:08:56;8.20;99.90
52181;DHT22;38158;53.338;6.514;2024-03-08T15:11:24;8.20;99.90
52181;DHT22;38158;53.338;6.514;2024-03-08T15:13:50;8.20;99.90
52181;DHT22;38158;53.338;6.514;2024-03-08T15:16:18;8.10;99.90
52181;DHT22;38158;53.338;6.514;2024-03-08T15:18:46;8.10;99.90
52181;DHT22;38158;53.338;6.514;2024-03-08T15:21:13;8.10;99.90
52181;DHT22;38158;53.338;6.514;2024-03-08T15:23:45;8.10;99.90
52181;DHT22;38158;53.338;6.514;2024-03-08T15:26:15;8.10;99.90
52181;DHT22;38158;53.338;6.514;2024-03-08T15:28:42;8.20;99.90
52181;DHT22;38158;53.338;6.514;2024-03-08T15:31:09;8.10;99.90
52181;DHT22;38158;53.338;6.514;2024-03-08T15:33:38;8.00;99.90
52181;DHT22;38158;53.338;6.514;2024-03-08T15:36:11;8.10;99.90
52181;DHT22;38158;53.338;6.514;2024-03-08T15:38:39;8.00;99.90
52181;DHT22;38158;53.338;6.514;2024-03-08T15:41:05;8.00;99.90
52181;DHT22;38158;53.338;6.514;2024-03-08T15:43:38;7.90;99.90
52181;DHT22;38158;53.338;6.514;2024-03-08T15:46:05;7.30;99.90
52181;DHT22;38158;53.338;6.514;2024-03-08T15:48:32;7.80;99.90
52181;DHT22;38158;53.338;6.514;2024-03-08T15:50:59;7.80;99.90
52181;DHT22;38158;53.338;6.514;2024-03-08T15:53:31;8.20;99.90